15°C Temp
10°C Dewpoint
72% Humidity
Temperature
14 KM/H
9 MPH
8 KTS
90°
Due East

Wind Speed
Clear
Conditions
Pressure 1017.92 (hPa) - 30.06 (in)
Visibility 6.2 (mi) - 10.0 (km)

Current Conditions
LIPR
Location 4(km)
Metar :LIPR 221550Z 09008KT 050V130 CAVOK 15/10 Q1018
Thu 22nd April 17:50 pm

Airport
  Metar Aviation API Data Provided by https://www.checkwx.com/ PHP scripts by weather34.com ©2021